Time,TemperatureF,DewpointF,PressureIn,WindDirection,WindDirectionDegrees,WindSpeedMPH,WindSpeedGustMPH,Humidity,HourlyPrecipIn,Conditions,Clouds,dailyrainin,SoftwareType,DateUTC
2013-01-06 00:00:00,40.7,20.8,30.25,SSW,199,0.0,0.0,44,0.00,,---,0.00,VWS V14.01,2013-01-06 05:00:00,
2013-01-06 00:03:00,40.7,20.8,30.25,South,178,3.2,3.9,44,0.00,,---,0.00,VWS V14.01,2013-01-06 05:03:00,
2013-01-06 00:04:00,40.7,20.8,30.25,SSE,162,0.0,0.0,44,0.00,,---,0.00,VWS V14.01,2013-01-06 05:04:00,
2013-01-06 00:07:00,40.7,20.8,30.25,SSE,165,0.0,0.0,44,0.00,,---,0.00,VWS V14.01,2013-01-06 05:07:00,
2013-01-06 00:12:00,40.6,20.6,30.25,SSE,165,0.0,0.0,44,0.00,,---,0.00,VWS V14.01,2013-01-06 05:12:00,
2013-01-06 00:17:00,40.6,20.6,30.25,SSE,165,0.0,0.0,44,0.00,,---,0.00,VWS V14.01,2013-01-06 05:17:00,
2013-01-06 00:22:00,40.6,21.4,30.25,SSE,165,0.0,0.0,46,0.00,,---,0.00,VWS V14.01,2013-01-06 05:22:00,
2013-01-06 00:27:00,40.4,21.2,30.25,SSE,165,0.0,0.0,46,0.00,,---,0.00,VWS V14.01,2013-01-06 05:27:00,
2013-01-06 00:33:00,40.4,21.2,30.25,SSE,165,0.0,0.0,46,0.00,,---,0.00,VWS V14.01,2013-01-06 05:33:00,
2013-01-06 00:38:00,40.2,21.0,30.25,SSE,165,0.0,0.0,46,0.00,,---,0.00,VWS V14.01,2013-01-06 05:38:00,
2013-01-06 00:43:00,40.0,21.6,30.25,SSE,165,0.0,0.0,47,0.00,,---,0.00,VWS V14.01,2013-01-06 05:43:00,
2013-01-06 00:48:00,39.8,21.4,30.25,SSE,165,0.0,0.0,47,0.00,,---,0.00,VWS V14.01,2013-01-06 05:48:00,
2013-01-06 00:53:00,39.7,21.9,30.25,SSE,165,0.0,0.0,49,0.00,,---,0.00,VWS V14.01,2013-01-06 05:53:00,
2013-01-06 00:58:00,39.7,21.9,30.25,SSE,160,0.0,0.0,49,0.00,,---,0.00,VWS V14.01,2013-01-06 05:58:00,
2013-01-06 01:03:00,39.5,21.8,30.25,SSE,160,0.0,0.0,49,0.00,,---,0.00,VWS V14.01,2013-01-06 06:03:00,
2013-01-06 01:08:00,39.5,22.4,30.25,SSE,160,0.0,0.0,50,0.00,,---,0.00,VWS V14.01,2013-01-06 06:08:00,
2013-01-06 01:14:00,39.5,22.4,30.25,SSE,160,0.0,0.0,50,0.00,,---,0.00,VWS V14.01,2013-01-06 06:14:00,
2013-01-06 01:19:00,39.3,22.2,30.25,SSE,160,0.0,0.0,50,0.00,,---,0.00,VWS V14.01,2013-01-06 06:19:00,
2013-01-06 01:24:00,39.3,22.9,30.22,SE,138,0.0,0.0,51,0.00,,---,0.00,VWS V14.01,2013-01-06 06:24:00,
2013-01-06 01:29:00,38.9,23.2,30.22,SE,138,0.0,0.0,53,0.00,,---,0.00,VWS V14.01,2013-01-06 06:29:00,
2013-01-06 01:34:00,38.9,23.2,30.22,North,0,4.5,5.8,53,0.00,,---,0.00,VWS V14.01,2013-01-06 06:34:00,
2013-01-06 01:39:00,38.6,23.5,30.22,North,357,4.5,4.5,54,0.00,,---,0.00,VWS V14.01,2013-01-06 06:39:00,
2013-01-06 01:44:00,38.2,23.1,30.22,North,3,0.0,4.5,54,0.00,,---,0.00,VWS V14.01,2013-01-06 06:44:00,
2013-01-06 01:49:00,38.0,23.0,30.22,NNE,29,5.2,5.8,54,0.00,,---,0.00,VWS V14.01,2013-01-06 06:49:00,
2013-01-06 01:54:00,38.0,23.6,30.25,North,357,0.0,3.9,56,0.00,,---,0.00,VWS V14.01,2013-01-06 06:54:00,
2013-01-06 02:00:00,38.0,23.6,30.25,North,357,0.0,3.9,56,0.00,,---,0.00,VWS V14.01,2013-01-06 07:00:00,
2013-01-06 02:05:00,38.0,23.6,30.25,North,1,0.0,0.0,56,0.00,,---,0.00,VWS V14.01,2013-01-06 07:05:00,
2013-01-06 02:10:00,37.9,23.4,30.19,North,1,3.9,3.9,56,0.00,,---,0.00,VWS V14.01,2013-01-06 07:10:00,
2013-01-06 02:15:00,37.9,23.4,30.19,North,353,0.0,0.0,56,0.00,,---,0.00,VWS V14.01,2013-01-06 07:15:00,
2013-01-06 02:20:00,37.9,24.0,30.19,North,353,0.0,0.0,57,0.00,,---,0.00,VWS V14.01,2013-01-06 07:20:00,
2013-01-06 02:25:00,37.9,24.0,30.22,North,353,0.0,0.0,57,0.00,,---,0.00,VWS V14.01,2013-01-06 07:25:00,
2013-01-06 02:30:00,37.9,24.0,30.22,North,353,0.0,0.0,57,0.00,,---,0.00,VWS V14.01,2013-01-06 07:30:00,
2013-01-06 02:35:00,37.9,24.0,30.22,North,353,0.0,0.0,57,0.00,,---,0.00,VWS V14.01,2013-01-06 07:35:00,
2013-01-06 02:40:00,37.9,24.0,30.22,North,353,0.0,0.0,57,0.00,,---,0.00,VWS V14.01,2013-01-06 07:40:00,
2013-01-06 02:46:00,37.9,24.0,30.22,North,6,0.0,0.0,57,0.00,,---,0.00,VWS V14.01,2013-01-06 07:46:00,
2013-01-06 02:51:00,37.9,24.0,30.22,NNE,13,0.0,0.0,57,0.00,,---,0.00,VWS V14.01,2013-01-06 07:51:00,
2013-01-06 02:56:00,37.7,24.4,30.22,NNE,13,0.0,0.0,58,0.00,,---,0.00,VWS V14.01,2013-01-06 07:56:00,
2013-01-06 03:01:00,37.7,24.4,30.22,NE,48,0.0,0.0,58,0.00,,---,0.00,VWS V14.01,2013-01-06 08:01:00,
2013-01-06 03:06:00,37.7,24.4,30.22,NE,35,3.9,4.5,58,0.00,,---,0.00,VWS V14.01,2013-01-06 08:06:00,
2013-01-06 03:11:00,37.7,24.4,30.22,ENE,60,0.0,0.0,58,0.00,,---,0.00,VWS V14.01,2013-01-06 08:11:00,
2013-01-06 03:17:00,37.5,24.2,30.22,North,357,3.2,5.2,58,0.00,,---,0.00,VWS V14.01,2013-01-06 08:17:00,
2013-01-06 03:22:00,37.5,24.2,30.22,NNE,22,0.0,0.0,58,0.00,,---,0.00,VWS V14.01,2013-01-06 08:22:00,
2013-01-06 03:27:00,37.5,24.2,30.22,North,10,3.9,5.2,58,0.00,,---,0.00,VWS V14.01,2013-01-06 08:27:00,
2013-01-06 03:32:00,37.5,24.2,30.22,NNW,340,3.2,5.2,58,0.00,,---,0.00,VWS V14.01,2013-01-06 08:32:00,
2013-01-06 03:37:00,37.9,24.6,30.22,NNW,341,4.5,5.2,58,0.00,,---,0.00,VWS V14.01,2013-01-06 08:37:00,
2013-01-06 03:42:00,38.2,24.9,30.22,NNW,342,3.9,3.9,58,0.00,,---,0.00,VWS V14.01,2013-01-06 08:42:00,
2013-01-06 03:47:00,38.4,24.5,30.22,North,0,0.0,3.9,57,0.00,,---,0.00,VWS V14.01,2013-01-06 08:47:00,
2013-01-06 03:52:00,38.4,24.5,30.22,NNW,346,0.0,0.0,57,0.00,,---,0.00,VWS V14.01,2013-01-06 08:52:00,
2013-01-06 03:58:00,38.4,24.5,30.22,North,349,3.2,3.2,57,0.00,,---,0.00,VWS V14.01,2013-01-06 08:58:00,
2013-01-06 04:03:00,38.4,24.5,30.22,North,0,0.0,0.0,57,0.00,,---,0.00,VWS V14.01,2013-01-06 09:03:00,
2013-01-06 04:08:00,38.4,24.5,30.22,North,357,0.0,3.2,57,0.00,,---,0.00,VWS V14.01,2013-01-06 09:08:00,
2013-01-06 04:13:00,38.0,24.2,30.22,North,353,0.0,0.0,57,0.00,,---,0.00,VWS V14.01,2013-01-06 09:13:00,
2013-01-06 04:18:00,37.9,24.0,30.22,North,0,0.0,0.0,57,0.00,,---,0.00,VWS V14.01,2013-01-06 09:18:00,
2013-01-06 04:24:00,37.9,24.0,30.19,North,0,3.9,3.9,57,0.00,,---,0.00,VWS V14.01,2013-01-06 09:24:00,
2013-01-06 04:29:00,37.7,23.8,30.19,North,0,0.0,0.0,57,0.00,,---,0.00,VWS V14.01,2013-01-06 09:29:00,
2013-01-06 04:34:00,37.7,23.2,30.19,North,0,0.0,0.0,56,0.00,,---,0.00,VWS V14.01,2013-01-06 09:34:00,
2013-01-06 04:39:00,37.5,23.1,30.19,North,0,0.0,0.0,56,0.00,,---,0.00,VWS V14.01,2013-01-06 09:39:00,
2013-01-06 04:44:00,37.3,22.9,30.19,WNW,302,0.0,0.0,56,0.00,,---,0.00,VWS V14.01,2013-01-06 09:44:00,
2013-01-06 04:49:00,37.1,22.7,30.19,NNW,345,0.0,0.0,56,0.00,,---,0.00,VWS V14.01,2013-01-06 09:49:00,
2013-01-06 04:54:00,37.0,22.6,30.19,NNW,345,0.0,0.0,56,0.00,,---,0.00,VWS V14.01,2013-01-06 09:54:00,
2013-01-06 04:59:00,36.8,22.4,30.19,WNW,303,0.0,0.0,56,0.00,,---,0.00,VWS V14.01,2013-01-06 09:59:00,
2013-01-06 05:05:00,36.6,22.2,30.19,WNW,300,0.0,0.0,56,0.00,,---,0.00,VWS V14.01,2013-01-06 10:05:00,
2013-01-06 05:10:00,36.2,22.5,30.19,NW,311,0.0,0.0,57,0.00,,---,0.00,VWS V14.01,2013-01-06 10:10:00,
2013-01-06 05:15:00,35.9,22.1,30.19,WNW,303,0.0,0.0,57,0.00,,---,0.00,VWS V14.01,2013-01-06 10:15:00,
2013-01-06 05:20:00,35.5,21.8,30.19,WNW,299,0.0,0.0,57,0.00,,---,0.00,VWS V14.01,2013-01-06 10:20:00,
2013-01-06 05:25:00,35.2,21.5,30.19,WNW,299,0.0,0.0,57,0.00,,---,0.00,VWS V14.01,2013-01-06 10:25:00,
2013-01-06 05:30:00,34.8,21.1,30.19,WNW,290,0.0,0.0,57,0.00,,---,0.00,VWS V14.01,2013-01-06 10:30:00,
2013-01-06 05:36:00,34.6,21.0,30.19,WNW,290,0.0,0.0,57,0.00,,---,0.00,VWS V14.01,2013-01-06 10:36:00,
2013-01-06 05:41:00,34.3,20.6,30.19,WNW,286,0.0,0.0,57,0.00,,---,0.00,VWS V14.01,2013-01-06 10:41:00,
2013-01-06 05:46:00,34.1,20.5,30.19,SSE,150,4.5,4.5,57,0.00,,---,0.00,VWS V14.01,2013-01-06 10:46:00,
2013-01-06 05:51:00,33.7,20.1,30.19,SSE,150,3.9,3.9,57,0.00,,---,0.00,VWS V14.01,2013-01-06 10:51:00,
2013-01-06 05:56:00,33.4,19.8,30.19,SSE,150,3.9,4.5,57,0.00,,---,0.00,VWS V14.01,2013-01-06 10:56:00,
2013-01-06 06:01:00,33.0,19.4,30.19,SSE,150,3.9,4.5,57,0.00,,---,0.00,VWS V14.01,2013-01-06 11:01:00,
2013-01-06 06:07:00,32.5,19.5,30.19,SSE,150,5.2,5.2,58,0.00,,---,0.00,VWS V14.01,2013-01-06 11:07:00,
2013-01-06 06:12:00,31.9,19.0,30.22,SSE,149,5.2,5.2,58,0.00,,---,0.00,VWS V14.01,2013-01-06 11:12:00,
2013-01-06 06:17:00,31.6,18.6,30.22,SSE,152,4.5,4.5,58,0.00,,---,0.00,VWS V14.01,2013-01-06 11:17:00,
2013-01-06 06:22:00,31.4,18.5,30.22,SSE,156,3.9,3.9,58,0.00,,---,0.00,VWS V14.01,2013-01-06 11:22:00,
2013-01-06 06:27:00,31.4,18.5,30.22,SSE,157,3.9,3.9,58,0.00,,---,0.00,VWS V14.01,2013-01-06 11:27:00,
2013-01-06 06:32:00,31.2,18.9,30.22,SSE,160,3.9,3.9,60,0.00,,---,0.00,VWS V14.01,2013-01-06 11:32:00,
2013-01-06 06:38:00,31.2,18.9,30.22,South,187,0.0,0.0,60,0.00,,---,0.00,VWS V14.01,2013-01-06 11:38:00,
2013-01-06 06:43:00,31.2,18.9,30.22,South,185,0.0,0.0,60,0.00,,---,0.00,VWS V14.01,2013-01-06 11:43:00,
2013-01-06 06:48:00,31.2,18.9,30.22,South,177,0.0,0.0,60,0.00,,---,0.00,VWS V14.01,2013-01-06 11:48:00,
2013-01-06 06:53:00,31.2,19.4,30.22,South,177,0.0,0.0,61,0.00,,---,0.00,VWS V14.01,2013-01-06 11:53:00,
2013-01-06 06:58:00,31.2,19.4,30.22,South,177,0.0,0.0,61,0.00,,---,0.00,VWS V14.01,2013-01-06 11:58:00,
2013-01-06 07:03:00,31.2,19.4,30.22,SSE,159,0.0,3.9,61,0.00,,---,0.00,VWS V14.01,2013-01-06 12:03:00,
2013-01-06 07:08:00,31.2,19.4,30.22,SSE,154,3.9,3.9,61,0.00,,---,0.00,VWS V14.01,2013-01-06 12:08:00,
2013-01-06 07:14:00,31.2,19.4,30.22,SSE,152,3.2,3.2,61,0.00,,---,0.00,VWS V14.01,2013-01-06 12:14:00,
2013-01-06 07:19:00,31.2,19.4,30.22,SSE,152,0.0,0.0,61,0.00,,---,0.00,VWS V14.01,2013-01-06 12:19:00,
2013-01-06 07:24:00,31.2,19.4,30.22,SSE,150,0.0,0.0,61,0.00,,---,0.00,VWS V14.01,2013-01-06 12:24:00,
2013-01-06 07:29:00,31.2,19.9,30.22,SSE,150,0.0,0.0,63,0.00,,---,0.00,VWS V14.01,2013-01-06 12:29:00,
2013-01-06 07:34:00,31.2,19.9,30.22,SSE,150,0.0,0.0,63,0.00,,---,0.00,VWS V14.01,2013-01-06 12:34:00,
2013-01-06 07:40:00,31.0,19.8,30.22,SSE,150,0.0,0.0,63,0.00,,---,0.00,VWS V14.01,2013-01-06 12:40:00,
2013-01-06 07:45:00,31.0,19.8,30.22,SSE,150,0.0,0.0,63,0.00,,---,0.00,VWS V14.01,2013-01-06 12:45:00,
2013-01-06 07:50:00,30.8,19.6,30.22,SSE,150,0.0,0.0,63,0.00,,---,0.00,VWS V14.01,2013-01-06 12:50:00,
2013-01-06 07:55:00,30.5,19.2,30.22,SSE,150,3.2,3.2,63,0.00,,---,0.00,VWS V14.01,2013-01-06 12:55:00,
2013-01-06 08:00:00,30.3,19.1,30.22,SSE,157,3.9,5.2,63,0.00,,---,0.00,VWS V14.01,2013-01-06 13:00:00,
2013-01-06 08:05:00,30.1,18.9,30.22,SSE,147,4.5,4.5,63,0.00,,---,0.00,VWS V14.01,2013-01-06 13:05:00,
2013-01-06 08:10:00,29.9,18.7,30.22,SSE,155,3.2,3.2,63,0.00,,---,0.00,VWS V14.01,2013-01-06 13:10:00,
2013-01-06 08:15:00,29.9,18.7,30.22,SSE,155,3.2,3.9,63,0.00,,---,0.00,VWS V14.01,2013-01-06 13:15:00,
2013-01-06 08:21:00,30.1,18.9,30.22,SSE,154,0.0,0.0,63,0.00,,---,0.00,VWS V14.01,2013-01-06 13:21:00,
2013-01-06 08:26:00,30.3,19.6,30.22,SSE,161,0.0,3.9,64,0.00,,---,0.00,VWS V14.01,2013-01-06 13:26:00,
2013-01-06 08:31:00,30.7,19.9,30.22,SSE,155,3.2,3.9,64,0.00,,---,0.00,VWS V14.01,2013-01-06 13:31:00,
2013-01-06 08:36:00,31.0,20.3,30.22,SSE,160,0.0,0.0,64,0.00,,---,0.00,VWS V14.01,2013-01-06 13:36:00,
2013-01-06 08:41:00,31.2,20.4,30.22,SSE,149,4.5,4.5,64,0.00,,---,0.00,VWS V14.01,2013-01-06 13:41:00,
2013-01-06 08:46:00,31.7,21.0,30.22,SSE,152,3.2,3.9,64,0.00,,---,0.00,VWS V14.01,2013-01-06 13:46:00,
2013-01-06 08:52:00,32.3,22.0,30.22,SSE,152,0.0,3.2,65,0.00,,---,0.00,VWS V14.01,2013-01-06 13:52:00,
2013-01-06 08:57:00,33.0,22.7,30.22,SSE,152,0.0,0.0,65,0.00,,---,0.00,VWS V14.01,2013-01-06 13:57:00,
2013-01-06 09:02:00,33.5,23.7,30.22,SSE,152,0.0,0.0,67,0.00,,---,0.00,VWS V14.01,2013-01-06 14:02:00,
2013-01-06 09:07:00,34.1,24.2,30.22,SSE,152,0.0,0.0,67,0.00,,---,0.00,VWS V14.01,2013-01-06 14:07:00,
2013-01-06 09:12:00,34.8,24.9,30.22,SSW,192,0.0,4.5,67,0.00,,---,0.00,VWS V14.01,2013-01-06 14:12:00,
2013-01-06 09:17:00,35.3,25.4,30.22,SSW,192,0.0,0.0,67,0.00,,---,0.00,VWS V14.01,2013-01-06 14:17:00,
2013-01-06 09:22:00,35.7,25.7,30.22,SSW,192,0.0,0.0,67,0.00,,---,0.00,VWS V14.01,2013-01-06 14:22:00,
2013-01-06 09:27:00,36.1,26.1,30.22,SSW,192,0.0,0.0,67,0.00,,---,0.00,VWS V14.01,2013-01-06 14:27:00,
2013-01-06 09:32:00,36.6,26.6,30.22,SSW,192,0.0,0.0,67,0.00,,---,0.00,VWS V14.01,2013-01-06 14:32:00,
2013-01-06 09:37:00,36.8,26.8,30.22,WSW,239,0.0,0.0,67,0.00,,---,0.00,VWS V14.01,2013-01-06 14:37:00,
2013-01-06 09:42:00,37.1,26.6,30.22,WSW,238,0.0,0.0,65,0.00,,---,0.00,VWS V14.01,2013-01-06 14:42:00,
2013-01-06 09:47:00,37.3,26.8,30.22,WSW,252,0.0,0.0,65,0.00,,---,0.00,VWS V14.01,2013-01-06 14:47:00,
2013-01-06 09:53:00,37.5,26.9,30.22,SSW,195,0.0,0.0,65,0.00,,---,0.00,VWS V14.01,2013-01-06 14:53:00,
2013-01-06 09:58:00,37.9,27.3,30.22,SSW,202,3.2,3.2,65,0.00,,---,0.00,VWS V14.01,2013-01-06 14:58:00,
2013-01-06 10:03:00,38.4,27.3,30.22,SW,227,0.0,5.8,64,0.00,,---,0.00,VWS V14.01,2013-01-06 15:03:00,
2013-01-06 10:08:00,38.9,27.8,30.22,WSW,245,5.8,5.8,64,0.00,,---,0.00,VWS V14.01,2013-01-06 15:08:00,
2013-01-06 10:13:00,39.3,27.0,30.22,WSW,237,5.2,9.1,61,0.00,,---,0.00,VWS V14.01,2013-01-06 15:13:00,
2013-01-06 10:18:00,39.8,27.6,30.22,WNW,293,5.8,5.8,61,0.00,,---,0.00,VWS V14.01,2013-01-06 15:18:00,
2013-01-06 10:23:00,40.6,27.7,30.22,SW,235,0.0,5.8,60,0.00,,---,0.00,VWS V14.01,2013-01-06 15:23:00,
2013-01-06 10:28:00,41.3,28.4,30.22,WNW,297,5.2,11.0,60,0.00,,---,0.00,VWS V14.01,2013-01-06 15:28:00,
2013-01-06 10:33:00,41.6,28.1,30.22,WSW,246,4.5,7.8,58,0.00,,---,0.00,VWS V14.01,2013-01-06 15:33:00,
2013-01-06 10:38:00,42.0,27.9,30.22,SW,218,9.1,9.1,57,0.00,,---,0.00,VWS V14.01,2013-01-06 15:38:00,
2013-01-06 10:44:00,42.4,28.2,30.22,SSW,209,7.1,7.1,57,0.00,,---,0.00,VWS V14.01,2013-01-06 15:44:00,
2013-01-06 10:49:00,42.5,28.4,30.22,SSW,210,5.8,5.8,57,0.00,,---,0.00,VWS V14.01,2013-01-06 15:49:00,
2013-01-06 10:54:00,42.9,28.1,30.22,South,182,0.0,3.9,56,0.00,,---,0.00,VWS V14.01,2013-01-06 15:54:00,
2013-01-06 10:59:00,43.1,28.3,30.22,SW,215,5.2,11.0,56,0.00,,---,0.00,VWS V14.01,2013-01-06 15:59:00,
2013-01-06 11:04:00,43.3,27.8,30.22,SW,228,6.5,9.1,54,0.00,,---,0.00,VWS V14.01,2013-01-06 16:04:00,
2013-01-06 11:09:00,43.3,27.8,30.22,SSW,211,7.8,7.8,54,0.00,,---,0.00,VWS V14.01,2013-01-06 16:09:00,
2013-01-06 11:15:00,43.4,28.0,30.22,WNW,300,5.2,7.1,54,0.00,,---,0.00,VWS V14.01,2013-01-06 16:15:00,
2013-01-06 11:20:00,43.6,28.2,30.22,West,266,0.0,0.0,54,0.00,,---,0.00,VWS V14.01,2013-01-06 16:20:00,
2013-01-06 11:25:00,43.8,27.7,30.22,West,260,5.8,5.8,53,0.00,,---,0.00,VWS V14.01,2013-01-06 16:25:00,
2013-01-06 11:30:00,43.8,27.7,30.22,WSW,245,5.2,7.1,53,0.00,,---,0.00,VWS V14.01,2013-01-06 16:30:00,
2013-01-06 11:35:00,43.6,27.5,30.22,SW,224,7.8,7.8,53,0.00,,---,0.00,VWS V14.01,2013-01-06 16:35:00,
2013-01-06 11:40:00,43.8,27.7,30.19,WNW,293,0.0,3.9,53,0.00,,---,0.00,VWS V14.01,2013-01-06 16:40:00,
2013-01-06 11:46:00,44.0,27.9,30.19,WSW,244,0.0,0.0,53,0.00,,---,0.00,VWS V14.01,2013-01-06 16:46:00,
2013-01-06 11:51:00,44.3,28.2,30.19,NNE,22,0.0,5.2,53,0.00,,---,0.00,VWS V14.01,2013-01-06 16:51:00,
2013-01-06 11:56:00,44.5,28.4,30.19,WSW,245,7.8,8.4,53,0.00,,---,0.00,VWS V14.01,2013-01-06 16:56:00,
2013-01-06 12:01:00,44.7,28.5,30.19,SW,214,5.2,8.4,53,0.00,,---,0.00,VWS V14.01,2013-01-06 17:01:00,
2013-01-06 12:06:00,44.9,27.4,30.19,WSW,238,5.8,8.4,50,0.00,,---,0.00,VWS V14.01,2013-01-06 17:06:00,
2013-01-06 12:11:00,45.1,27.6,30.19,NW,308,0.0,5.2,50,0.00,,---,0.00,VWS V14.01,2013-01-06 17:11:00,
2013-01-06 12:16:00,45.1,27.6,30.19,NW,309,4.5,4.5,50,0.00,,---,0.00,VWS V14.01,2013-01-06 17:16:00,
2013-01-06 12:21:00,45.2,27.7,30.19,West,261,3.9,12.0,50,0.00,,---,0.00,VWS V14.01,2013-01-06 17:21:00,
2013-01-06 12:26:00,45.6,27.4,30.16,WNW,288,5.2,9.1,49,0.00,,---,0.00,VWS V14.01,2013-01-06 17:26:00,
2013-01-06 12:32:00,45.8,26.9,30.16,NNW,335,7.8,7.8,47,0.00,,---,0.00,VWS V14.01,2013-01-06 17:32:00,
2013-01-06 12:37:00,45.8,26.9,30.16,North,2,5.8,5.8,47,0.00,,---,0.00,VWS V14.01,2013-01-06 17:37:00,
2013-01-06 12:42:00,46.1,27.2,30.16,SW,220,5.2,5.8,47,0.00,,---,0.00,VWS V14.01,2013-01-06 17:42:00,
2013-01-06 12:47:00,46.3,26.6,30.16,NW,305,8.4,8.4,46,0.00,,---,0.00,VWS V14.01,2013-01-06 17:47:00,
2013-01-06 12:52:00,46.3,26.6,30.16,SSW,205,5.8,5.8,46,0.00,,---,0.00,VWS V14.01,2013-01-06 17:52:00,
2013-01-06 12:58:00,46.5,26.8,30.16,North,2,0.0,8.4,46,0.00,,---,0.00,VWS V14.01,2013-01-06 17:58:00,
2013-01-06 13:03:00,46.7,27.0,30.16,NNE,18,3.2,3.9,46,0.00,,---,0.00,VWS V14.01,2013-01-06 18:03:00,
2013-01-06 13:08:00,46.7,26.2,30.16,NNW,333,3.2,7.8,44,0.00,,---,0.00,VWS V14.01,2013-01-06 18:08:00,
2013-01-06 13:13:00,46.3,25.9,30.16,North,7,3.9,5.8,44,0.00,,---,0.00,VWS V14.01,2013-01-06 18:13:00,
2013-01-06 13:18:00,45.8,25.4,30.16,North,10,4.5,4.5,44,0.00,,---,0.00,VWS V14.01,2013-01-06 18:18:00,
2013-01-06 13:23:00,45.6,25.2,30.16,North,353,3.9,5.8,44,0.00,,---,0.00,VWS V14.01,2013-01-06 18:23:00,
2013-01-06 13:29:00,45.4,25.8,30.16,West,276,0.0,0.0,46,0.00,,---,0.00,VWS V14.01,2013-01-06 18:29:00,
2013-01-06 13:34:00,45.4,25.8,30.16,SW,218,0.0,0.0,46,0.00,,---,0.00,VWS V14.01,2013-01-06 18:34:00,
2013-01-06 13:39:00,45.4,25.1,30.16,NW,317,5.2,5.2,44,0.00,,---,0.00,VWS V14.01,2013-01-06 18:39:00,
2013-01-06 13:44:00,45.6,25.2,30.16,ENE,72,0.0,3.9,44,0.00,,---,0.00,VWS V14.01,2013-01-06 18:44:00,
2013-01-06 13:49:00,45.6,25.2,30.16,North,357,4.5,5.8,44,0.00,,---,0.00,VWS V14.01,2013-01-06 18:49:00,
2013-01-06 13:55:00,46.1,25.7,30.16,West,267,9.1,9.1,44,0.00,,---,0.00,VWS V14.01,2013-01-06 18:55:00,
2013-01-06 14:00:00,46.5,26.0,30.16,North,7,5.8,5.8,44,0.00,,---,0.00,VWS V14.01,2013-01-06 19:00:00,
2013-01-06 14:05:00,46.9,26.4,30.16,SW,229,4.5,4.5,44,0.00,,---,0.00,VWS V14.01,2013-01-06 19:05:00,
2013-01-06 14:10:00,47.0,26.5,30.14,SW,235,4.5,5.2,44,0.00,,---,0.00,VWS V14.01,2013-01-06 19:10:00,
2013-01-06 14:15:00,47.0,26.5,30.14,WSW,249,9.1,9.1,44,0.00,,---,0.00,VWS V14.01,2013-01-06 19:15:00,
2013-01-06 14:20:00,47.0,26.5,30.14,North,353,4.5,4.5,44,0.00,,---,0.00,VWS V14.01,2013-01-06 19:20:00,
2013-01-06 14:25:00,46.9,25.6,30.16,NNW,339,0.0,5.2,43,0.00,,---,0.00,VWS V14.01,2013-01-06 19:25:00,
2013-01-06 14:31:00,46.5,25.3,30.16,North,357,4.5,4.5,43,0.00,,---,0.00,VWS V14.01,2013-01-06 19:31:00,
2013-01-06 14:36:00,46.3,25.1,30.16,WNW,296,0.0,5.8,43,0.00,,---,0.00,VWS V14.01,2013-01-06 19:36:00,
2013-01-06 14:46:00,45.8,24.6,30.14,West,261,0.0,3.2,43,0.00,,---,0.00,VWS V14.01,2013-01-06 19:46:00,
2013-01-06 14:51:00,45.8,24.6,30.14,NW,321,0.0,0.0,43,0.00,,---,0.00,VWS V14.01,2013-01-06 19:51:00,
2013-01-06 14:57:00,45.8,24.6,30.14,NNW,345,0.0,3.9,43,0.00,,---,0.00,VWS V14.01,2013-01-06 19:57:00,
2013-01-06 15:02:00,45.6,24.5,30.14,WNW,282,4.5,5.2,43,0.00,,---,0.00,VWS V14.01,2013-01-06 20:02:00,
2013-01-06 15:07:00,45.6,24.5,30.14,WNW,296,0.0,0.0,43,0.00,,---,0.00,VWS V14.01,2013-01-06 20:07:00,
2013-01-06 15:11:00,45.6,24.5,30.14,WSW,241,0.0,0.0,43,0.00,,---,0.00,VWS V14.01,2013-01-06 20:11:00,
2013-01-06 15:13:00,45.6,24.5,30.14,SW,222,7.1,7.1,43,0.00,,---,0.00,VWS V14.01,2013-01-06 20:13:00,
2013-01-06 15:18:00,45.6,24.5,30.14,SW,222,5.8,5.8,43,0.00,,---,0.00,VWS V14.01,2013-01-06 20:18:00,
2013-01-06 15:23:00,45.4,24.3,30.14,NNW,333,0.0,5.2,43,0.00,,---,0.00,VWS V14.01,2013-01-06 20:23:00,
2013-01-06 15:29:00,45.4,24.3,30.14,WNW,285,0.0,0.0,43,0.00,,---,0.00,VWS V14.01,2013-01-06 20:29:00,
2013-01-06 15:34:00,45.4,24.3,30.14,NNW,338,3.9,3.9,43,0.00,,---,0.00,VWS V14.01,2013-01-06 20:34:00,
2013-01-06 15:39:00,45.4,24.3,30.14,WSW,250,4.5,8.4,43,0.00,,---,0.00,VWS V14.01,2013-01-06 20:39:00,
2013-01-06 15:44:00,45.4,24.3,30.14,North,11,4.5,4.5,43,0.00,,---,0.00,VWS V14.01,2013-01-06 20:44:00,
2013-01-06 15:49:00,45.2,24.1,30.14,ENE,68,3.9,3.9,43,0.00,,---,0.00,VWS V14.01,2013-01-06 20:49:00,
2013-01-06 15:54:00,45.2,24.1,30.16,SW,235,4.5,4.5,43,0.00,,---,0.00,VWS V14.01,2013-01-06 20:54:00,
2013-01-06 15:59:00,45.1,24.0,30.16,West,265,0.0,0.0,43,0.00,,---,0.00,VWS V14.01,2013-01-06 20:59:00,
2013-01-06 16:00:00,45.1,24.0,30.16,NW,323,0.0,0.0,43,0.00,,---,0.00,VWS V14.01,2013-01-06 21:00:00,
2013-01-06 16:05:00,45.1,24.0,30.16,North,0,4.5,4.5,43,0.00,,---,0.00,VWS V14.01,2013-01-06 21:05:00,
2013-01-06 16:10:00,44.9,23.8,30.14,North,353,0.0,4.5,43,0.00,,---,0.00,VWS V14.01,2013-01-06 21:10:00,
2013-01-06 16:15:00,44.7,23.6,30.14,NW,312,7.1,7.1,43,0.00,,---,0.00,VWS V14.01,2013-01-06 21:15:00,
2013-01-06 16:21:00,44.7,23.6,30.14,West,270,0.0,9.1,43,0.00,,---,0.00,VWS V14.01,2013-01-06 21:21:00,
2013-01-06 16:26:00,44.5,23.5,30.16,SW,230,0.0,0.0,43,0.00,,---,0.00,VWS V14.01,2013-01-06 21:26:00,
2013-01-06 16:31:00,44.5,23.5,30.16,WNW,285,5.8,5.8,43,0.00,,---,0.00,VWS V14.01,2013-01-06 21:31:00,
2013-01-06 16:36:00,44.3,23.3,30.16,SW,230,0.0,0.0,43,0.00,,---,0.00,VWS V14.01,2013-01-06 21:36:00,
2013-01-06 16:41:00,44.3,23.3,30.16,WNW,285,3.2,5.2,43,0.00,,---,0.00,VWS V14.01,2013-01-06 21:41:00,
2013-01-06 16:46:00,44.2,23.1,30.16,SW,231,0.0,0.0,43,0.00,,---,0.00,VWS V14.01,2013-01-06 21:46:00,
2013-01-06 16:51:00,44.0,23.0,30.16,NW,315,0.0,0.0,43,0.00,,---,0.00,VWS V14.01,2013-01-06 21:51:00,
2013-01-06 16:56:00,43.8,22.8,30.14,WSW,239,0.0,0.0,43,0.00,,---,0.00,VWS V14.01,2013-01-06 21:56:00,
2013-01-06 17:01:00,43.6,23.4,30.14,NNW,345,0.0,0.0,44,0.00,,---,0.00,VWS V14.01,2013-01-06 22:01:00,
2013-01-06 17:06:00,43.3,23.1,30.14,NW,313,0.0,0.0,44,0.00,,---,0.00,VWS V14.01,2013-01-06 22:06:00,
2013-01-06 17:12:00,43.1,22.9,30.16,SW,236,0.0,0.0,44,0.00,,---,0.00,VWS V14.01,2013-01-06 22:12:00,
2013-01-06 17:17:00,42.9,22.8,30.16,NW,308,0.0,0.0,44,0.00,,---,0.00,VWS V14.01,2013-01-06 22:17:00,
2013-01-06 17:22:00,42.7,22.6,30.16,WNW,287,0.0,0.0,44,0.00,,---,0.00,VWS V14.01,2013-01-06 22:22:00,
2013-01-06 17:27:00,42.5,22.4,30.14,WNW,297,0.0,0.0,44,0.00,,---,0.00,VWS V14.01,2013-01-06 22:27:00,
2013-01-06 17:32:00,42.4,22.3,30.14,WNW,299,0.0,3.9,44,0.00,,---,0.00,VWS V14.01,2013-01-06 22:32:00,
2013-01-06 17:37:00,42.2,22.1,30.14,NNW,330,0.0,0.0,44,0.00,,---,0.00,VWS V14.01,2013-01-06 22:37:00,
2013-01-06 17:42:00,42.0,21.9,30.16,West,264,0.0,0.0,44,0.00,,---,0.00,VWS V14.01,2013-01-06 22:42:00,
2013-01-06 17:47:00,42.0,21.9,30.16,WSW,247,0.0,0.0,44,0.00,,---,0.00,VWS V14.01,2013-01-06 22:47:00,
2013-01-06 17:52:00,41.8,22.5,30.16,ESE,103,0.0,0.0,46,0.00,,---,0.00,VWS V14.01,2013-01-06 22:52:00,
2013-01-06 17:57:00,41.6,22.3,30.16,West,263,0.0,0.0,46,0.00,,---,0.00,VWS V14.01,2013-01-06 22:57:00,
2013-01-06 18:03:00,41.5,22.2,30.16,WNW,301,0.0,0.0,46,0.00,,---,0.00,VWS V14.01,2013-01-06 23:03:00,
2013-01-06 18:08:00,41.5,22.2,30.16,West,266,0.0,0.0,46,0.00,,---,0.00,VWS V14.01,2013-01-06 23:08:00,
2013-01-06 18:13:00,41.3,22.0,30.16,WNW,303,0.0,0.0,46,0.00,,---,0.00,VWS V14.01,2013-01-06 23:13:00,
2013-01-06 18:18:00,41.3,22.0,30.16,SSW,203,3.9,4.5,46,0.00,,---,0.00,VWS V14.01,2013-01-06 23:18:00,
2013-01-06 18:23:00,41.3,22.0,30.16,WSW,251,0.0,0.0,46,0.00,,---,0.00,VWS V14.01,2013-01-06 23:23:00,
2013-01-06 18:28:00,41.3,22.0,30.16,North,0,0.0,0.0,46,0.00,,---,0.00,VWS V14.01,2013-01-06 23:28:00,
2013-01-06 18:34:00,41.5,22.2,30.16,NW,325,0.0,4.5,46,0.00,,---,0.00,VWS V14.01,2013-01-06 23:34:00,
2013-01-06 18:39:00,41.6,22.3,30.16,NW,318,0.0,0.0,46,0.00,,---,0.00,VWS V14.01,2013-01-06 23:39:00,
2013-01-06 18:44:00,41.6,22.3,30.16,NNW,341,0.0,0.0,46,0.00,,---,0.00,VWS V14.01,2013-01-06 23:44:00,
2013-01-06 18:49:00,41.6,23.0,30.16,West,264,3.9,3.9,47,0.00,,---,0.00,VWS V14.01,2013-01-06 23:49:00,
2013-01-06 18:54:00,41.6,23.0,30.19,North,353,4.5,4.5,47,0.00,,---,0.00,VWS V14.01,2013-01-06 23:54:00,
2013-01-06 18:59:00,41.6,23.0,30.19,NW,315,0.0,0.0,47,0.00,,---,0.00,VWS V14.01,2013-01-06 23:59:00,
2013-01-06 19:04:00,41.6,23.0,30.19,East,83,0.0,0.0,47,0.00,,---,0.00,VWS V14.01,2013-01-07 00:04:00,
2013-01-06 19:09:00,41.6,23.0,30.16,NNW,331,0.0,0.0,47,0.00,,---,0.00,VWS V14.01,2013-01-07 00:09:00,
2013-01-06 19:14:00,41.6,23.0,30.16,NNW,329,0.0,3.9,47,0.00,,---,0.00,VWS V14.01,2013-01-07 00:14:00,
2013-01-06 19:19:00,41.6,23.0,30.16,West,274,0.0,0.0,47,0.00,,---,0.00,VWS V14.01,2013-01-07 00:19:00,
2013-01-06 19:24:00,41.6,23.0,30.19,West,273,0.0,0.0,47,0.00,,---,0.00,VWS V14.01,2013-01-07 00:24:00,
2013-01-06 19:30:00,41.5,22.9,30.19,WNW,285,0.0,0.0,47,0.00,,---,0.00,VWS V14.01,2013-01-07 00:30:00,
2013-01-06 19:35:00,41.5,22.9,30.19,West,266,0.0,0.0,47,0.00,,---,0.00,VWS V14.01,2013-01-07 00:35:00,
2013-01-06 19:40:00,41.5,22.9,30.19,NNW,341,0.0,3.2,47,0.00,,---,0.00,VWS V14.01,2013-01-07 00:40:00,
2013-01-06 19:45:00,41.5,22.9,30.19,North,353,0.0,3.2,47,0.00,,---,0.00,VWS V14.01,2013-01-07 00:45:00,
2013-01-06 19:50:00,41.5,22.9,30.19,North,349,0.0,3.2,47,0.00,,---,0.00,VWS V14.01,2013-01-07 00:50:00,
2013-01-06 19:55:00,41.5,22.9,30.19,North,349,0.0,0.0,47,0.00,,---,0.00,VWS V14.01,2013-01-07 00:55:00,
2013-01-06 20:00:00,41.5,22.9,30.19,North,349,0.0,0.0,47,0.00,,---,0.00,VWS V14.01,2013-01-07 01:00:00,
2013-01-06 20:05:00,41.5,22.9,30.19,North,349,0.0,0.0,47,0.00,,---,0.00,VWS V14.01,2013-01-07 01:05:00,
2013-01-06 20:10:00,41.3,22.7,30.19,North,349,0.0,0.0,47,0.00,,---,0.00,VWS V14.01,2013-01-07 01:10:00,
2013-01-06 20:15:00,41.3,22.7,30.19,North,349,0.0,0.0,47,0.00,,---,0.00,VWS V14.01,2013-01-07 01:15:00,
2013-01-06 20:21:00,41.3,23.4,30.19,North,349,0.0,0.0,49,0.00,,---,0.00,VWS V14.01,2013-01-07 01:21:00,
2013-01-06 20:26:00,41.3,23.4,30.19,North,349,0.0,0.0,49,0.00,,---,0.00,VWS V14.01,2013-01-07 01:26:00,
2013-01-06 20:31:00,41.1,23.2,30.19,North,349,0.0,0.0,49,0.00,,---,0.00,VWS V14.01,2013-01-07 01:31:00,
2013-01-06 20:36:00,40.9,23.1,30.19,North,349,0.0,0.0,49,0.00,,---,0.00,VWS V14.01,2013-01-07 01:36:00,
2013-01-06 20:41:00,40.9,23.1,30.19,North,349,0.0,0.0,49,0.00,,---,0.00,VWS V14.01,2013-01-07 01:41:00,
2013-01-06 20:46:00,40.7,22.9,30.19,North,349,0.0,0.0,49,0.00,,---,0.00,VWS V14.01,2013-01-07 01:46:00,
2013-01-06 20:51:00,40.6,22.7,30.19,North,349,0.0,0.0,49,0.00,,---,0.00,VWS V14.01,2013-01-07 01:51:00,
2013-01-06 20:56:00,40.4,22.6,30.19,ESE,106,0.0,0.0,49,0.00,,---,0.00,VWS V14.01,2013-01-07 01:56:00,
2013-01-06 21:01:00,40.2,22.4,30.19,ESE,105,0.0,0.0,49,0.00,,---,0.00,VWS V14.01,2013-01-07 02:01:00,
2013-01-06 21:06:00,40.2,23.1,30.19,ESE,105,3.2,3.2,50,0.00,,---,0.00,VWS V14.01,2013-01-07 02:06:00,
2013-01-06 21:12:00,40.0,22.9,30.19,ESE,106,0.0,0.0,50,0.00,,---,0.00,VWS V14.01,2013-01-07 02:12:00,
2013-01-06 21:17:00,39.8,23.4,30.19,ESE,123,3.2,3.2,51,0.00,,---,0.00,VWS V14.01,2013-01-07 02:17:00,
2013-01-06 21:22:00,39.8,23.4,30.19,ESE,123,0.0,0.0,51,0.00,,---,0.00,VWS V14.01,2013-01-07 02:22:00,
2013-01-06 21:27:00,39.7,23.2,30.19,WSW,238,0.0,0.0,51,0.00,,---,0.00,VWS V14.01,2013-01-07 02:27:00,
2013-01-06 21:32:00,39.7,23.9,30.19,ENE,69,0.0,0.0,53,0.00,,---,0.00,VWS V14.01,2013-01-07 02:32:00,
2013-01-06 21:37:00,39.7,23.9,30.19,ENE,69,0.0,0.0,53,0.00,,---,0.00,VWS V14.01,2013-01-07 02:37:00,
2013-01-06 21:42:00,39.7,23.9,30.19,ENE,69,0.0,0.0,53,0.00,,---,0.00,VWS V14.01,2013-01-07 02:42:00,
2013-01-06 21:47:00,39.7,24.5,30.19,SSW,196,0.0,0.0,54,0.00,,---,0.00,VWS V14.01,2013-01-07 02:47:00,
2013-01-06 21:52:00,39.7,24.5,30.19,SW,224,3.2,4.5,54,0.00,,---,0.00,VWS V14.01,2013-01-07 02:52:00,
2013-01-06 21:57:00,39.8,24.7,30.19,SSW,211,0.0,0.0,54,0.00,,---,0.00,VWS V14.01,2013-01-07 02:57:00,
2013-01-06 22:02:00,39.8,24.7,30.19,SSW,211,0.0,0.0,54,0.00,,---,0.00,VWS V14.01,2013-01-07 03:02:00,
2013-01-06 22:08:00,39.8,24.7,30.19,SSW,200,0.0,0.0,54,0.00,,---,0.00,VWS V14.01,2013-01-07 03:08:00,
2013-01-06 22:13:00,40.0,24.8,30.19,SSW,200,0.0,0.0,54,0.00,,---,0.00,VWS V14.01,2013-01-07 03:13:00,
2013-01-06 22:18:00,40.0,24.8,30.19,SSE,150,3.9,3.9,54,0.00,,---,0.00,VWS V14.01,2013-01-07 03:18:00,
2013-01-06 22:23:00,40.2,24.4,30.22,SE,143,4.5,4.5,53,0.00,,---,0.00,VWS V14.01,2013-01-07 03:23:00,
2013-01-06 22:28:00,40.2,24.4,30.22,South,175,0.0,0.0,53,0.00,,---,0.00,VWS V14.01,2013-01-07 03:28:00,
2013-01-06 22:33:00,40.2,24.4,30.22,South,183,0.0,0.0,53,0.00,,---,0.00,VWS V14.01,2013-01-07 03:33:00,
2013-01-06 22:38:00,40.4,24.5,30.22,SSW,201,0.0,0.0,53,0.00,,---,0.00,VWS V14.01,2013-01-07 03:38:00,
2013-01-06 22:43:00,40.4,24.5,30.22,SW,224,0.0,0.0,53,0.00,,---,0.00,VWS V14.01,2013-01-07 03:43:00,
2013-01-06 22:49:00,40.4,24.5,30.22,SSW,211,0.0,0.0,53,0.00,,---,0.00,VWS V14.01,2013-01-07 03:49:00,
2013-01-06 22:54:00,40.6,24.7,30.22,SW,214,0.0,0.0,53,0.00,,---,0.00,VWS V14.01,2013-01-07 03:54:00,
2013-01-06 22:59:00,40.6,24.7,30.22,SW,214,0.0,0.0,53,0.00,,---,0.00,VWS V14.01,2013-01-07 03:59:00,
2013-01-06 23:04:00,40.6,24.7,30.22,SW,214,0.0,0.0,53,0.00,,---,0.00,VWS V14.01,2013-01-07 04:04:00,
2013-01-06 23:09:00,40.6,24.7,30.22,SW,214,0.0,0.0,53,0.00,,---,0.00,VWS V14.01,2013-01-07 04:09:00,
2013-01-06 23:14:00,40.6,24.7,30.22,SW,222,0.0,0.0,53,0.00,,---,0.00,VWS V14.01,2013-01-07 04:14:00,
2013-01-06 23:20:00,40.7,24.9,30.22,SW,219,0.0,0.0,53,0.00,,---,0.00,VWS V14.01,2013-01-07 04:20:00,
2013-01-06 23:25:00,40.7,24.2,30.22,SW,224,0.0,0.0,51,0.00,,---,0.00,VWS V14.01,2013-01-07 04:25:00,
2013-01-06 23:30:00,40.7,24.2,30.22,WSW,237,0.0,0.0,51,0.00,,---,0.00,VWS V14.01,2013-01-07 04:30:00,
2013-01-06 23:35:00,40.7,24.2,30.22,WSW,238,0.0,0.0,51,0.00,,---,0.00,VWS V14.01,2013-01-07 04:35:00,
2013-01-06 23:40:00,40.7,24.2,30.22,WSW,237,0.0,0.0,51,0.00,,---,0.00,VWS V14.01,2013-01-07 04:40:00,
2013-01-06 23:46:00,40.7,24.2,30.22,NNW,339,0.0,0.0,51,0.00,,---,0.00,VWS V14.01,2013-01-07 04:46:00,
2013-01-06 23:51:00,40.7,24.2,30.22,NNW,341,3.2,3.9,51,0.00,,---,0.00,VWS V14.01,2013-01-07 04:51:00,
2013-01-06 23:56:00,40.7,24.2,30.22,NNW,341,5.2,5.2,51,0.00,,---,0.00,VWS V14.01,2013-01-07 04:56:00,